createdAt,value
2022-12-15T00:02:19.491Z,100665.34
2022-12-15T00:05:05.287Z,100669.00
2022-12-15T00:07:50.194Z,100664.56
2022-12-15T00:10:35.911Z,100658.09
2022-12-15T00:13:20.865Z,100656.44
2022-12-15T00:16:13.246Z,100658.72
2022-12-15T00:19:00.930Z,100660.69
2022-12-15T00:21:46.328Z,100669.13
2022-12-15T00:24:31.325Z,100664.16
2022-12-15T00:27:16.482Z,100654.06
2022-12-15T00:30:01.503Z,100658.03
2022-12-15T00:32:46.606Z,100658.66
2022-12-15T00:35:31.732Z,100664.59
2022-12-15T00:38:16.911Z,100656.78
2022-12-15T00:40:43.568Z,100658.25
2022-12-15T00:43:12.288Z,100659.72
2022-12-15T00:45:57.393Z,100668.47
2022-12-15T00:48:24.036Z,100665.13
2022-12-15T00:50:53.471Z,100665.78
2022-12-15T00:53:39.316Z,100673.66
2022-12-15T00:56:24.991Z,100675.44
2022-12-15T00:59:10.003Z,100671.31
2022-12-15T01:01:55.144Z,100670.28
2022-12-15T01:04:40.667Z,100679.31
2022-12-15T01:07:25.684Z,100676.31
2022-12-15T01:10:11.294Z,100679.75
2022-12-15T01:12:59.121Z,100682.34
2022-12-15T01:15:50.980Z,100678.44
2022-12-15T01:18:44.137Z,100680.22
2022-12-15T01:21:16.387Z,100682.84
2022-12-15T01:23:43.057Z,100677.03
2022-12-15T01:26:09.757Z,100673.69
2022-12-15T01:28:36.440Z,100681.91
2022-12-15T01:31:15.693Z,100680.88
2022-12-15T01:33:44.976Z,100677.03
2022-12-15T01:36:11.859Z,100683.56
2022-12-15T01:38:38.591Z,100680.03
2022-12-15T01:41:06.422Z,100682.63
2022-12-15T01:43:35.973Z,100682.44
2022-12-15T01:46:04.314Z,100684.50
2022-12-15T01:48:35.768Z,100680.94
2022-12-15T01:51:17.514Z,100694.47
2022-12-15T01:53:50.233Z,100690.06
2022-12-15T01:56:17.853Z,100687.38
2022-12-15T01:58:45.972Z,100691.09
2022-12-15T02:01:15.816Z,100697.31
2022-12-15T02:03:43.813Z,100698.75
2022-12-15T02:06:10.773Z,100699.38
2022-12-15T02:08:38.103Z,100702.22
2022-12-15T02:11:19.162Z,100708.75
2022-12-15T02:13:49.752Z,100700.72
2022-12-15T02:16:16.520Z,100708.34
2022-12-15T02:19:03.405Z,100707.25
2022-12-15T02:21:34.103Z,100709.84
2022-12-15T02:24:13.121Z,100704.88
2022-12-15T02:26:52.161Z,100708.88
2022-12-15T02:29:37.761Z,100703.34
2022-12-15T02:32:07.380Z,100709.03
2022-12-15T02:34:43.247Z,100711.59
2022-12-15T02:37:42.157Z,100711.69
2022-12-15T02:40:10.488Z,100717.34
2022-12-15T02:42:41.429Z,100720.78
2022-12-15T02:45:12.291Z,100717.75
2022-12-15T02:47:46.374Z,100728.72
2022-12-15T02:50:31.840Z,100738.88
2022-12-15T02:52:58.538Z,100733.34
2022-12-15T02:55:50.179Z,100733.41
2022-12-15T02:58:19.839Z,100730.38
2022-12-15T03:00:58.107Z,100730.97
2022-12-15T03:03:25.549Z,100739.13
2022-12-15T03:05:57.477Z,100729.66
2022-12-15T03:08:24.668Z,100737.81
2022-12-15T03:10:53.237Z,100735.91
2022-12-15T03:13:20.389Z,100740.97
2022-12-15T03:15:52.941Z,100739.91
2022-12-15T03:18:25.016Z,100749.41
2022-12-15T03:20:51.710Z,100748.06
2022-12-15T03:23:18.325Z,100741.41
2022-12-15T03:25:46.329Z,100741.97
2022-12-15T03:28:16.607Z,100740.91
2022-12-15T03:30:43.202Z,100737.59
2022-12-15T03:33:11.429Z,100739.84
2022-12-15T03:35:38.095Z,100732.06
2022-12-15T03:38:04.738Z,100729.88
2022-12-15T03:40:31.571Z,100736.03
2022-12-15T03:42:58.983Z,100739.44
2022-12-15T03:45:26.895Z,100735.56
2022-12-15T03:47:54.286Z,100738.94
2022-12-15T03:50:22.914Z,100745.13
2022-12-15T03:52:53.465Z,100740.97
2022-12-15T03:55:21.092Z,100749.94
2022-12-15T03:57:48.047Z,100741.31
2022-12-15T04:00:15.334Z,100738.28
2022-12-15T04:02:42.629Z,100732.47
2022-12-15T04:05:13.834Z,100727.44
2022-12-15T04:07:40.420Z,100724.13
2022-12-15T04:10:07.106Z,100718.00
2022-12-15T04:12:37.091Z,100721.38
2022-12-15T04:15:03.827Z,100727.56
2022-12-15T04:17:30.419Z,100722.03
2022-12-15T04:20:12.266Z,100727.06
2022-12-15T04:22:43.042Z,100725.69
2022-12-15T04:25:32.238Z,100722.34
2022-12-15T04:28:17.776Z,100726.56
2022-12-15T04:31:13.904Z,100723.22
2022-12-15T04:34:01.097Z,100724.09
2022-12-15T04:36:47.029Z,100717.16
2022-12-15T04:39:32.041Z,100723.28
2022-12-15T04:42:19.522Z,100727.81
2022-12-15T04:45:05.611Z,100727.28
2022-12-15T04:47:50.828Z,100726.19
2022-12-15T04:50:35.869Z,100728.44
2022-12-15T04:53:32.609Z,100739.38
2022-12-15T04:56:18.907Z,100736.31
2022-12-15T04:59:04.528Z,100735.78
2022-12-15T05:01:49.749Z,100736.38
2022-12-15T05:04:35.068Z,100746.13
2022-12-15T05:07:20.101Z,100748.94
2022-12-15T05:10:09.550Z,100759.00
2022-12-15T05:13:01.041Z,100749.28
2022-12-15T05:15:53.648Z,100754.56
2022-12-15T05:18:42.057Z,100750.41
2022-12-15T05:21:31.369Z,100754.88
2022-12-15T05:24:16.442Z,100744.56
2022-12-15T05:27:01.624Z,100741.47
2022-12-15T05:29:46.660Z,100741.72
2022-12-15T05:32:13.384Z,100744.47
2022-12-15T05:34:39.958Z,100743.91
2022-12-15T05:37:07.538Z,100747.22
2022-12-15T05:39:34.244Z,100745.50
2022-12-15T05:42:00.903Z,100740.47
2022-12-15T05:44:28.430Z,100737.94
2022-12-15T05:46:55.062Z,100749.91
2022-12-15T05:49:23.496Z,100760.19
2022-12-15T05:51:50.421Z,100758.47
2022-12-15T05:54:18.430Z,100755.66
2022-12-15T05:56:45.676Z,100753.66
2022-12-15T05:59:12.660Z,100749.16
2022-12-15T06:01:39.911Z,100756.69
2022-12-15T06:04:07.644Z,100769.75
2022-12-15T06:06:34.432Z,100757.44
2022-12-15T06:09:01.082Z,100750.94
2022-12-15T06:11:27.722Z,100761.25
2022-12-15T06:13:59.271Z,100749.19
2022-12-15T06:16:28.356Z,100747.16
2022-12-15T06:18:56.251Z,100750.22
2022-12-15T06:21:24.400Z,100755.72
2022-12-15T06:23:51.185Z,100761.25
2022-12-15T06:26:22.459Z,100756.72
2022-12-15T06:28:49.898Z,100753.88
2022-12-15T06:31:18.186Z,100762.22
2022-12-15T06:33:44.985Z,100752.09
2022-12-15T06:36:13.079Z,100766.03
2022-12-15T06:38:40.022Z,100762.63
2022-12-15T06:41:09.906Z,100761.44
2022-12-15T06:43:36.476Z,100760.84
2022-12-15T06:46:03.820Z,100763.56
2022-12-15T06:48:30.619Z,100768.25
2022-12-15T06:50:57.473Z,100765.75
2022-12-15T06:53:24.534Z,100767.66
2022-12-15T06:55:51.196Z,100768.72
2022-12-15T06:58:18.435Z,100777.34
2022-12-15T07:00:46.788Z,100775.31
2022-12-15T07:03:15.699Z,100781.97
2022-12-15T07:06:06.086Z,100791.72
2022-12-15T07:08:38.043Z,100786.06
2022-12-15T07:11:18.575Z,100787.97
2022-12-15T07:13:50.928Z,100784.53
2022-12-15T07:16:18.032Z,100791.22
2022-12-15T07:18:44.860Z,100785.53
2022-12-15T07:21:14.310Z,100787.75
2022-12-15T07:23:54.199Z,100790.78
2022-12-15T07:26:21.907Z,100792.13
2022-12-15T07:28:48.601Z,100798.25
2022-12-15T07:31:20.181Z,100793.22
2022-12-15T07:33:48.626Z,100788.66
2022-12-15T07:36:15.517Z,100784.69
2022-12-15T07:38:42.137Z,100791.69
2022-12-15T07:41:12.779Z,100793.34
2022-12-15T07:43:39.526Z,100791.06
2022-12-15T07:46:06.505Z,100786.00
2022-12-15T07:48:33.649Z,100792.97
2022-12-15T07:51:11.029Z,100795.16
2022-12-15T07:53:42.582Z,100793.66
2022-12-15T07:56:12.016Z,100792.66
2022-12-15T07:58:39.258Z,100801.50
2022-12-15T08:01:08.100Z,100791.13
2022-12-15T08:03:36.216Z,100798.41
2022-12-15T08:06:05.138Z,100796.16
2022-12-15T08:08:32.538Z,100803.41
2022-12-15T08:11:00.123Z,100823.00
2022-12-15T08:14:00.731Z,100813.47
2022-12-15T08:16:14.182Z,100814.31
2022-12-15T08:18:41.340Z,100822.41
2022-12-15T08:21:10.984Z,100817.66
2022-12-15T08:23:38.808Z,100821.28
2022-12-15T08:26:08.038Z,100824.59
2022-12-15T08:28:35.960Z,100836.34
2022-12-15T08:31:09.006Z,100820.91
2022-12-15T08:33:36.381Z,100827.56
2022-12-15T08:36:05.278Z,100822.78
2022-12-15T08:38:32.326Z,100828.94
2022-12-15T08:41:08.584Z,100830.28
2022-12-15T08:43:36.080Z,100829.97
2022-12-15T08:46:03.077Z,100838.09
2022-12-15T08:48:30.574Z,100836.13
2022-12-15T08:51:00.505Z,100835.84
2022-12-15T08:53:32.084Z,100850.38
2022-12-15T08:56:07.462Z,100845.31
2022-12-15T08:58:34.392Z,100845.00
2022-12-15T09:01:25.980Z,100844.69
2022-12-15T09:03:54.194Z,100851.66
2022-12-15T09:06:40.379Z,100856.13
2022-12-15T09:09:10.923Z,100858.31
2022-12-15T09:11:37.913Z,100867.28
2022-12-15T09:14:05.217Z,100871.44
2022-12-15T09:16:32.565Z,100870.28
2022-12-15T09:19:00.881Z,100882.00
2022-12-15T09:21:28.907Z,100880.59
2022-12-15T09:24:00.864Z,100883.91
2022-12-15T09:26:28.991Z,100878.00
2022-12-15T09:28:57.143Z,100883.00
2022-12-15T09:31:30.846Z,100887.47
2022-12-15T09:34:00.302Z,100892.78
2022-12-15T09:36:27.568Z,100894.97
2022-12-15T09:38:54.777Z,100890.19
2022-12-15T09:41:24.048Z,100895.50
2022-12-15T09:43:55.899Z,100897.16
2022-12-15T09:46:35.248Z,100886.78
2022-12-15T09:49:03.729Z,100890.94
2022-12-15T09:51:35.539Z,100895.44
2022-12-15T09:54:03.113Z,100884.50
2022-12-15T09:56:40.022Z,100893.75
2022-12-15T09:59:17.157Z,100904.13
2022-12-15T10:01:48.278Z,100906.09
2022-12-15T10:04:24.866Z,100915.66
2022-12-15T10:07:05.299Z,100903.59
2022-12-15T10:09:32.269Z,100915.13
2022-12-15T10:12:02.559Z,100917.09
2022-12-15T10:14:38.776Z,100923.53
2022-12-15T10:17:17.553Z,100922.16
2022-12-15T10:19:50.161Z,100928.91
2022-12-15T10:22:22.021Z,100934.84
2022-12-15T10:27:46.885Z,100934.63
2022-12-15T10:30:16.525Z,100930.97
2022-12-15T10:32:50.957Z,100938.84
2022-12-15T10:35:22.339Z,100938.31
2022-12-15T10:37:50.081Z,100928.53
2022-12-15T10:40:19.040Z,100931.63
2022-12-15T10:42:48.325Z,100928.31
2022-12-15T10:45:24.831Z,100932.53
2022-12-15T10:48:00.186Z,100932.03
2022-12-15T10:50:27.864Z,100935.13
2022-12-15T10:52:55.166Z,100928.16
2022-12-15T10:55:31.693Z,100931.56
2022-12-15T10:58:00.251Z,100936.94
2022-12-15T11:00:29.902Z,100926.34
2022-12-15T11:03:43.392Z,100931.41
2022-12-15T11:06:19.779Z,100923.88
2022-12-15T11:08:47.799Z,100922.81
2022-12-15T11:11:27.553Z,100924.25
2022-12-15T11:14:07.634Z,100923.19
2022-12-15T11:16:34.581Z,100919.84
2022-12-15T11:19:13.698Z,100924.38
2022-12-15T11:21:45.112Z,100912.97
2022-12-15T11:24:17.904Z,100909.59
2022-12-15T11:26:54.746Z,100913.31
2022-12-15T11:29:34.780Z,100903.00
2022-12-15T11:32:06.910Z,100906.94
2022-12-15T11:34:37.020Z,100899.44
2022-12-15T11:37:04.207Z,100893.31
2022-12-15T11:39:42.300Z,100899.81
2022-12-15T11:42:15.044Z,100901.22
2022-12-15T11:44:49.070Z,100902.66
2022-12-15T11:47:25.789Z,100897.97
2022-12-15T11:50:07.792Z,100900.22
2022-12-15T11:52:45.420Z,100898.03
2022-12-15T11:55:29.192Z,100892.19
2022-12-15T11:58:07.313Z,100895.88
2022-12-15T12:00:38.004Z,100884.16
2022-12-15T12:03:13.283Z,100888.91
2022-12-15T12:05:47.599Z,100881.66
2022-12-15T12:08:30.476Z,100876.06
2022-12-15T12:11:05.301Z,100882.50
2022-12-15T12:13:41.716Z,100880.22
2022-12-15T12:16:09.690Z,100882.41
2022-12-15T12:18:43.149Z,100879.03
2022-12-15T12:21:15.423Z,100876.75
2022-12-15T12:23:42.609Z,100880.94
2022-12-15T12:26:16.006Z,100882.00
2022-12-15T12:28:48.889Z,100873.31
2022-12-15T12:31:27.369Z,100873.56
2022-12-15T12:33:56.080Z,100863.69
2022-12-15T12:36:23.641Z,100872.31
2022-12-15T12:38:53.019Z,100866.16
2022-12-15T12:41:29.679Z,100868.34
2022-12-15T12:44:00.938Z,100854.56
2022-12-15T12:46:28.272Z,100855.63
2022-12-15T12:48:56.603Z,100848.59
2022-12-15T12:51:24.763Z,100848.00
2022-12-15T12:53:51.988Z,100850.22
2022-12-15T12:56:28.748Z,100848.47
2022-12-15T12:58:55.823Z,100843.09
2022-12-15T13:01:32.923Z,100853.38
2022-12-15T13:04:09.759Z,100849.97
2022-12-15T13:06:36.870Z,100848.22
2022-12-15T13:09:23.660Z,100848.75
2022-12-15T13:11:51.994Z,100851.81
2022-12-15T13:14:25.840Z,100841.16
2022-12-15T13:17:25.347Z,100840.81
2022-12-15T13:22:48.770Z,100840.53
2022-12-15T13:25:26.874Z,100841.38
2022-12-15T13:27:58.100Z,100836.91
2022-12-15T13:30:25.291Z,100828.50
2022-12-15T13:32:53.716Z,100828.50
2022-12-15T13:35:26.547Z,100828.50
2022-12-15T13:37:54.896Z,100830.78
2022-12-15T13:40:35.554Z,100833.59
2022-12-15T13:43:05.740Z,100824.63
2022-12-15T13:45:36.287Z,100829.41
2022-12-15T13:48:13.955Z,100818.50
2022-12-15T13:50:45.245Z,100813.19
2022-12-15T13:53:20.860Z,100819.06
2022-12-15T13:56:00.907Z,100814.59
2022-12-15T13:58:29.071Z,100814.91
2022-12-15T14:00:57.377Z,100819.97
2022-12-15T14:03:24.906Z,100809.41
2022-12-15T14:05:56.969Z,100811.66
2022-12-15T14:08:27.524Z,100811.44
2022-12-15T14:10:56.290Z,100816.81
2022-12-15T14:13:24.787Z,100802.28
2022-12-15T14:15:54.924Z,100812.97
2022-12-15T14:18:23.771Z,100812.41
2022-12-15T14:20:50.820Z,100811.06
2022-12-15T14:23:21.642Z,100817.25
2022-12-15T14:25:57.309Z,100814.78
2022-12-15T14:28:25.032Z,100810.59
2022-12-15T14:30:52.103Z,100810.91
2022-12-15T14:33:19.585Z,100803.94
2022-12-15T14:35:49.547Z,100815.44
2022-12-15T14:38:26.788Z,100813.53
2022-12-15T14:40:56.547Z,100802.09
2022-12-15T14:43:39.064Z,100808.03
2022-12-15T14:46:09.457Z,100807.25
2022-12-15T14:48:41.770Z,100812.31
2022-12-15T14:51:11.074Z,100816.00
2022-12-15T14:53:44.661Z,100818.88
2022-12-15T14:56:14.281Z,100828.72
2022-12-15T14:58:41.775Z,100823.13
2022-12-15T15:03:10.065Z,100839.69
2022-12-15T15:03:43.922Z,100824.84
2022-12-15T15:06:12.321Z,100816.13
2022-12-15T15:08:46.957Z,100827.03
2022-12-15T15:11:28.391Z,100829.56
2022-12-15T15:14:05.415Z,100830.91
2022-12-15T15:16:32.610Z,100819.72
2022-12-15T15:19:01.142Z,100829.16
2022-12-15T15:21:29.218Z,100831.69
2022-12-15T15:23:59.711Z,100831.38
2022-12-15T15:26:27.315Z,100819.88
2022-12-15T15:28:54.689Z,100822.69
2022-12-15T15:31:30.216Z,100827.69
2022-12-15T15:34:00.158Z,100829.03
2022-12-15T15:36:31.004Z,100830.44
2022-12-15T15:38:59.073Z,100819.75
2022-12-15T15:41:30.261Z,100821.13
2022-12-15T15:44:00.412Z,100819.69
2022-12-15T15:46:30.550Z,100825.81
2022-12-15T15:49:01.449Z,100818.78
2022-12-15T15:56:31.231Z,100831.56
2022-12-15T15:58:59.808Z,100832.09
2022-12-15T16:01:26.845Z,100841.03
2022-12-15T16:03:58.469Z,100845.50
2022-12-15T16:06:25.408Z,100844.06
2022-12-15T16:08:54.023Z,100845.72
2022-12-15T16:11:22.406Z,100853.53
2022-12-15T16:13:49.336Z,100850.44
2022-12-15T16:16:23.597Z,100848.16
2022-12-15T16:18:50.609Z,100849.81
2022-12-15T16:21:18.252Z,100848.41
2022-12-15T16:23:46.586Z,100849.75
2022-12-15T16:26:15.504Z,100846.31
2022-12-15T16:28:42.526Z,100851.63
2022-12-15T16:31:14.836Z,100852.19
2022-12-15T16:33:42.015Z,100849.88
2022-12-15T16:36:16.032Z,100848.50
2022-12-15T16:38:43.288Z,100847.34
2022-12-15T16:41:13.566Z,100850.69
2022-12-15T16:43:44.514Z,100862.41
2022-12-15T16:46:16.204Z,100858.19
2022-12-15T16:48:43.926Z,100860.69
2022-12-15T16:51:18.214Z,100855.59
2022-12-15T16:53:45.678Z,100857.28
2022-12-15T16:56:14.473Z,100851.38
2022-12-15T16:58:41.406Z,100848.25
2022-12-15T17:01:10.398Z,100855.22
2022-12-15T17:03:37.613Z,100854.91
2022-12-15T17:06:07.007Z,100857.41
2022-12-15T17:08:38.916Z,100847.53
2022-12-15T17:11:06.606Z,100860.44
2022-12-15T17:13:42.069Z,100867.41
2022-12-15T17:16:14.701Z,100862.09
2022-12-15T17:18:42.854Z,100859.59
2022-12-15T17:21:14.272Z,100857.63
2022-12-15T17:23:42.619Z,100858.75
2022-12-15T17:26:29.730Z,100866.34
2022-12-15T17:28:59.038Z,100872.25
2022-12-15T17:31:31.531Z,100880.66
2022-12-15T17:34:02.807Z,100884.59
2022-12-15T17:36:29.687Z,100889.38
2022-12-15T17:38:58.572Z,100900.28
2022-12-15T17:41:50.699Z,100894.38
2022-12-15T17:44:32.927Z,100903.59
2022-12-15T17:47:02.071Z,100900.81
2022-12-15T17:49:35.197Z,100898.84
2022-12-15T17:52:05.506Z,100898.53
2022-12-15T17:54:32.690Z,100901.34
2022-12-15T17:57:00.261Z,100897.41
2022-12-15T17:59:27.307Z,100897.09
2022-12-15T18:01:57.504Z,100906.03
2022-12-15T18:04:24.887Z,100913.59
2022-12-15T18:06:58.072Z,100908.56
2022-12-15T18:09:28.306Z,100902.94
2022-12-15T18:11:55.231Z,100911.88
2022-12-15T18:14:23.201Z,100915.22
2022-12-15T18:16:50.359Z,100910.44
2022-12-15T18:19:17.250Z,100923.28
2022-12-15T18:21:44.116Z,100924.13
2022-12-15T18:24:12.987Z,100927.47
2022-12-15T18:26:40.095Z,100923.53
2022-12-15T18:29:12.007Z,100924.06
2022-12-15T18:31:38.962Z,100921.25
2022-12-15T18:34:11.565Z,100933.00
2022-12-15T18:36:38.729Z,100935.81
2022-12-15T18:39:16.034Z,100933.53
2022-12-15T18:41:44.186Z,100942.47
2022-12-15T18:44:19.467Z,100948.09
2022-12-15T18:46:48.072Z,100947.25
2022-12-15T18:49:15.429Z,100960.13
2022-12-15T18:51:42.470Z,100962.41
2022-12-15T18:54:16.209Z,100966.03
2022-12-15T18:56:43.169Z,100960.44
2022-12-15T18:59:12.294Z,100961.28
2022-12-15T19:01:39.345Z,100964.06
2022-12-15T19:04:06.465Z,100970.81
2022-12-15T19:06:36.239Z,100974.75
2022-12-15T19:09:03.531Z,100980.69
2022-12-15T19:11:31.384Z,100979.00
2022-12-15T19:14:00.216Z,100981.25
2022-12-15T19:16:27.636Z,100979.63
2022-12-15T19:19:03.548Z,100983.84
2022-12-15T19:21:41.465Z,100992.25
2022-12-15T19:24:10.885Z,100985.81
2022-12-15T19:26:40.630Z,100986.66
2022-12-15T19:29:17.145Z,100994.22
2022-12-15T19:31:44.386Z,101003.19
2022-12-15T19:34:11.665Z,100997.56
2022-12-15T19:36:38.704Z,100995.59
2022-12-15T19:39:06.545Z,101007.34
2022-12-15T19:41:38.435Z,101011.81
2022-12-15T19:44:13.825Z,101007.03
2022-12-15T19:46:41.506Z,101005.59
2022-12-15T19:49:08.519Z,101007.25
2022-12-15T19:51:35.779Z,101010.91
2022-12-15T19:54:03.036Z,101007.81
2022-12-15T19:56:30.185Z,100999.91
2022-12-15T19:58:57.279Z,101008.88
2022-12-15T20:01:24.360Z,101015.81
2022-12-15T20:03:52.482Z,101007.13
2022-12-15T20:06:21.140Z,101012.44
2022-12-15T20:08:48.883Z,101019.41
2022-12-15T20:11:17.585Z,101017.13
2022-12-15T20:13:45.426Z,101011.19
2022-12-15T20:16:12.383Z,101017.34
2022-12-15T20:18:40.903Z,101021.84
2022-12-15T20:21:09.769Z,101023.19
2022-12-15T20:23:41.621Z,101031.31
2022-12-15T20:26:08.485Z,101037.44
2022-12-15T20:28:35.267Z,101037.13
2022-12-15T20:31:03.324Z,101035.16
2022-12-15T20:33:30.711Z,101037.34
2022-12-15T20:35:57.869Z,101033.13
2022-12-15T20:38:27.418Z,101033.13
2022-12-15T20:40:55.145Z,101044.03
2022-12-15T20:43:22.829Z,101044.56
2022-12-15T20:45:57.844Z,101047.91
2022-12-15T20:48:25.359Z,101054.38
2022-12-15T20:50:53.044Z,101056.88
2022-12-15T20:53:22.982Z,101057.41
2022-12-15T20:55:50.994Z,101063.53
2022-12-15T20:58:18.385Z,101058.78
2022-12-15T21:00:45.901Z,101067.72
2022-12-15T21:03:17.142Z,101064.59
2022-12-15T21:05:44.185Z,101063.47
2022-12-15T21:08:16.554Z,101065.97
2022-12-15T21:10:43.560Z,101066.50
2022-12-15T21:13:19.899Z,101067.31
2022-12-15T21:15:47.231Z,101069.84
2022-12-15T21:18:57.182Z,101072.31
2022-12-15T21:21:01.740Z,101081.28
2022-12-15T21:23:30.511Z,101082.97
2022-12-15T21:25:58.448Z,101084.31
2022-12-15T21:28:25.784Z,101088.78
2022-12-15T21:30:53.046Z,101084.84
2022-12-15T21:33:21.039Z,101093.78
2022-12-15T21:35:48.314Z,101095.16
2022-12-15T21:38:27.044Z,101091.22
2022-12-15T21:43:44.319Z,101105.78
2022-12-15T21:46:13.456Z,101105.47
2022-12-15T21:48:50.489Z,101098.72
2022-12-15T21:51:18.665Z,101091.34
2022-12-15T21:53:46.486Z,101106.25
2022-12-15T21:56:15.804Z,101103.94
2022-12-15T21:58:44.534Z,101094.38
2022-12-15T22:01:17.954Z,101103.31
2022-12-15T22:03:47.323Z,101101.03
2022-12-15T22:06:17.757Z,101096.78
2022-12-15T22:08:44.476Z,101095.66
2022-12-15T22:11:24.796Z,101094.22
2022-12-15T22:13:52.614Z,101096.69
2022-12-15T22:16:22.221Z,101092.75
2022-12-15T22:18:50.336Z,101096.09
2022-12-15T22:21:17.640Z,101096.63
2022-12-15T22:23:45.291Z,101095.47
2022-12-15T22:26:31.469Z,101090.38
2022-12-15T22:29:02.097Z,101090.06
2022-12-15T22:31:28.950Z,101092.59
2022-12-15T22:33:55.677Z,101107.13
2022-12-15T22:36:22.360Z,101107.97
2022-12-15T22:38:48.955Z,101100.09
2022-12-15T22:41:26.178Z,101120.25
2022-12-15T22:43:55.177Z,101119.13
2022-12-15T22:46:24.276Z,101123.59
2022-12-15T22:48:52.489Z,101126.94
2022-12-15T22:51:21.504Z,101126.94
2022-12-15T22:53:48.282Z,101127.47
2022-12-15T22:56:25.447Z,101126.34
2022-12-15T22:58:55.031Z,101126.88
2022-12-15T23:01:24.551Z,101128.53
2022-12-15T23:03:51.985Z,101128.25
2022-12-15T23:06:18.893Z,101123.47
2022-12-15T23:08:45.571Z,101142.81
2022-12-15T23:11:33.271Z,101140.53
2022-12-15T23:13:59.902Z,101139.41
2022-12-15T23:16:26.683Z,101141.88
2022-12-15T23:18:54.820Z,101140.44
2022-12-15T23:21:22.435Z,101135.66
2022-12-15T23:23:49.281Z,101138.16
2022-12-15T23:26:17.788Z,101131.38
2022-12-15T23:28:45.198Z,101144.81
2022-12-15T23:31:21.712Z,101140.88
2022-12-15T23:33:48.804Z,101143.38
2022-12-15T23:36:15.931Z,101150.69
2022-12-15T23:38:43.003Z,101154.31
2022-12-15T23:41:15.857Z,101152.84
2022-12-15T23:43:43.004Z,101147.78
2022-12-15T23:46:10.126Z,101156.22
2022-12-15T23:48:38.529Z,101149.97
2022-12-15T23:51:15.911Z,101153.59
2022-12-15T23:53:43.885Z,101149.66
2022-12-15T23:56:14.093Z,101151.63
2022-12-15T23:58:42.116Z,101154.44
